Time;durP1;ratioP1;P1;durP2;ratioP2;P2;SDS_P1;SDS_P2;PMS_P1;PMS_P2;Temp;Humidity;BMP_temperature;BMP_pressure;BME280_temperature;BME280_humidity;BME280_pressure;Samples;Min_cycle;Max_cycle;Signal;HPM_P1;HPM_P2
2023/09/28 00:01:18;;;;;;;;;;;;;;;;;;5036913;28;19905;-79
2023/09/28 00:03:45;;;;;;;;;;;;;;;;;;5035820;28;20256;-79
2023/09/28 00:06:11;;;;;;;;;;;;;;;;;;5033298;28;20363;-78
2023/09/28 00:08:36;;;;;;;;;;;;;;;;;;5033837;28;20055;-78
2023/09/28 00:11:03;;;;;;;;;;;;;;;;;;5053768;28;19911;-77
2023/09/28 00:13:29;;;;;;;;;;;;;;;;;;5054477;28;19905;-78
2023/09/28 00:15:55;;;;;;;;;;;;;;;;;;5052720;28;20332;-79
2023/09/28 00:18:21;;;;;;;;;;;;;;;;;;5052889;28;19958;-77
2023/09/28 00:20:47;;;;;;;;;;;;;;;;;;5044141;28;19909;-77
2023/09/28 00:23:14;;;;;;;;;;;;;;;;;;5033637;28;19954;-79
2023/09/28 00:25:40;;;;;;;;;;;;;;;;;;5060944;28;19911;-79
2023/09/28 00:28:06;;;;;;;;;;;;;;;;;;5064385;28;20303;-78
2023/09/28 00:30:32;;;;;;;;;;;;;;;;;;5053650;28;19984;-78
2023/09/28 00:32:58;;;;;;;;;;;;;;;;;;5058940;28;19904;-78
2023/09/28 00:35:25;;;;;;;;;;;;;;;;;;5054153;28;19928;-77
2023/09/28 00:37:51;;;;;;;;;;;;;;;;;;5052176;28;19905;-79
2023/09/28 00:40:19;;;;;;;;;;;;;;;;;;5054607;28;20329;-79
2023/09/28 00:42:44;;;;;;;;;;;;;;;;;;5034151;28;19915;-79
2023/09/28 00:45:10;;;;;;;;;;;;;;;;;;5034214;28;19960;-78
2023/09/28 00:47:38;;;;;;;;;;;;;;;;;;5033662;28;19909;-78
2023/09/28 00:50:05;;;;;;;;;;;;;;;;;;5033770;28;19921;-79
2023/09/28 00:52:33;;;;;;;;;;;;;;;;;;5036358;28;19905;-78
2023/09/28 00:54:59;;;;;;;;;;;;;;;;;;5034029;28;19905;-78
2023/09/28 00:57:26;;;;;;;;;;;;;;;;;;5040634;28;19915;-79
2023/09/28 00:59:52;;;;;;;;;;;;;;;;;;5074735;28;19926;-78
2023/09/28 01:02:18;;;;;;;;;;;;;;;;;;5054252;28;20363;-79
2023/09/28 01:04:44;;;;;;;;;;;;;;;;;;5048820;28;19915;-78
2023/09/28 01:07:10;;;;;;;;;;;;;;;;;;5056331;28;19905;-79
2023/09/28 01:09:36;;;;;;;;;;;;;;;;;;5055646;28;20379;-78
2023/09/28 01:12:03;;;;;;;;;;;;;;;;;;5049762;28;19909;-79
2023/09/28 01:14:29;;;;;;;;;;;;;;;;;;5035243;28;19944;-81
2023/09/28 01:16:55;;;;;;;;;;;;;;;;;;5042626;28;19912;-78
2023/09/28 01:19:20;;;;;;;;;;;;;;;;;;5033166;28;20007;-78
2023/09/28 01:21:46;;;;;;;;;;;;;;;;;;5033485;28;19958;-78
2023/09/28 01:24:13;;;;;;;;;;;;;;;;;;5034806;28;19952;-78
2023/09/28 01:26:39;;;;;;;;;;;;;;;;;;5035191;28;19987;-78
2023/09/28 01:29:05;;;;;;;;;;;;;;;;;;5034629;28;19909;-79
2023/09/28 01:31:32;;;;;;;;;;;;;;;;;;5034057;28;20410;-81
2023/09/28 01:33:58;;;;;;;;;;;;;;;;;;5035548;28;19908;-77
2023/09/28 01:36:24;;;;;;;;;;;;;;;;;;5036436;28;19911;-78
2023/09/28 01:38:50;;;;;;;;;;;;;;;;;;5036608;28;19945;-78
2023/09/28 01:41:16;;;;;;;;;;;;;;;;;;5033227;28;20041;-78
2023/09/28 01:43:42;;;;;;;;;;;;;;;;;;5042580;28;19908;-78
2023/09/28 01:46:09;;;;;;;;;;;;;;;;;;5053104;28;19904;-78
2023/09/28 01:48:35;;;;;;;;;;;;;;;;;;5053479;28;19959;-77
2023/09/28 01:51:01;;;;;;;;;;;;;;;;;;5052377;28;19940;-79
2023/09/28 01:53:27;;;;;;;;;;;;;;;;;;5057049;28;20012;-77
2023/09/28 01:55:53;;;;;;;;;;;;;;;;;;5057059;28;19905;-79
2023/09/28 01:58:19;;;;;;;;;;;;;;;;;;5051028;28;19929;-79
2023/09/28 02:00:45;;;;;;;;;;;;;;;;;;5092203;28;19902;-78
2023/09/28 02:03:14;;;;;;;;;;;;;;;;;;5084736;28;20371;-78
2023/09/28 02:05:40;;;;;;;;;;;;;;;;;;5082661;28;19926;-78
2023/09/28 02:08:06;;;;;;;;;;;;;;;;;;5098139;28;19976;-79
2023/09/28 02:10:32;;;;;;;;;;;;;;;;;;5090879;28;19991;-78
2023/09/28 02:12:59;;;;;;;;;;;;;;;;;;5080236;28;19911;-77
2023/09/28 02:15:25;;;;;;;;;;;;;;;;;;5081365;28;19931;-77
2023/09/28 02:17:50;;;;;;;;;;;;;;;;;;5084959;28;20401;-78
2023/09/28 02:20:18;;;;;;;;;;;;;;;;;;5078657;28;20322;-79
2023/09/28 02:22:44;;;;;;;;;;;;;;;;;;5077290;28;19911;-78
2023/09/28 02:25:10;;;;;;;;;;;;;;;;;;5074429;28;19911;-78
2023/09/28 02:27:37;;;;;;;;;;;;;;;;;;5037350;28;19905;-78
2023/09/28 02:30:05;;;;;;;;;;;;;;;;;;5068418;28;19913;-78
2023/09/28 02:32:31;;;;;;;;;;;;;;;;;;5075775;28;19904;-78
2023/09/28 02:34:58;;;;;;;;;;;;;;;;;;5076379;28;19909;-78
2023/09/28 02:37:24;;;;;;;;;;;;;;;;;;5076780;28;19950;-78
2023/09/28 02:39:50;;;;;;;;;;;;;;;;;;5076231;28;19905;-79
2023/09/28 02:42:16;;;;;;;;;;;;;;;;;;5075993;28;19955;-76
2023/09/28 02:44:42;;;;;;;;;;;;;;;;;;5076159;28;19910;-79
2023/09/28 02:47:09;;;;;;;;;;;;;;;;;;5074212;28;19911;-79
2023/09/28 02:49:35;;;;;;;;;;;;;;;;;;5075581;28;19912;-79
2023/09/28 02:52:01;;;;;;;;;;;;;;;;;;5077524;28;19911;-79
2023/09/28 02:54:29;;;;;;;;;;;;;;;;;;5060215;28;19943;-78
2023/09/28 02:56:55;;;;;;;;;;;;;;;;;;5049054;28;20228;-78
2023/09/28 02:59:25;;;;;;;;;;;;;;;;;;5060970;28;19905;-79
2023/09/28 03:01:52;;;;;;;;;;;;;;;;;;5075739;28;19905;-80
2023/09/28 03:04:17;;;;;;;;;;;;;;;;;;5074924;28;19904;-79
2023/09/28 03:06:44;;;;;;;;;;;;;;;;;;5077925;28;19971;-77
2023/09/28 03:09:11;;;;;;;;;;;;;;;;;;5078447;28;19908;-78
2023/09/28 03:11:39;;;;;;;;;;;;;;;;;;5044482;28;20379;-78
2023/09/28 03:14:05;;;;;;;;;;;;;;;;;;5044581;28;19928;-79
2023/09/28 03:16:32;;;;;;;;;;;;;;;;;;5043282;28;19909;-79
2023/09/28 03:18:58;;;;;;;;;;;;;;;;;;5035743;28;20302;-77
2023/09/28 03:21:24;;;;;;;;;;;;;;;;;;5036228;28;20008;-78
2023/09/28 03:23:50;;;;;;;;;;;;;;;;;;5036891;28;19959;-79
2023/09/28 03:26:16;;;;;;;;;;;;;;;;;;5036100;28;20063;-77
2023/09/28 03:28:41;;;;;;;;;;;;;;;;;;5044094;28;19913;-78
2023/09/28 03:31:07;;;;;;;;;;;;;;;;;;5049083;28;19909;-77
2023/09/28 03:33:33;;;;;;;;;;;;;;;;;;5056491;28;20381;-79
2023/09/28 03:35:59;;;;;;;;;;;;;;;;;;5054131;28;19962;-78
2023/09/28 03:38:25;;;;;;;;;;;;;;;;;;5053997;28;19911;-77
2023/09/28 03:40:51;;;;;;;;;;;;;;;;;;5058988;28;19959;-79
2023/09/28 03:43:17;;;;;;;;;;;;;;;;;;5048783;28;19919;-80
2023/09/28 03:45:43;;;;;;;;;;;;;;;;;;5058414;28;20004;-79
2023/09/28 03:48:09;;;;;;;;;;;;;;;;;;5062063;28;19924;-79
2023/09/28 03:50:35;;;;;;;;;;;;;;;;;;5063985;28;19909;-79
2023/09/28 03:53:01;;;;;;;;;;;;;;;;;;5058055;28;19954;-80
2023/09/28 03:55:27;;;;;;;;;;;;;;;;;;5038487;28;19905;-80
2023/09/28 03:57:53;;;;;;;;;;;;;;;;;;5036258;28;20344;-79
2023/09/28 04:00:19;;;;;;;;;;;;;;;;;;5061526;28;19988;-80
2023/09/28 04:02:45;;;;;;;;;;;;;;;;;;5078028;28;19943;-77
2023/09/28 04:05:11;;;;;;;;;;;;;;;;;;5074464;28;19911;-78
2023/09/28 04:07:37;;;;;;;;;;;;;;;;;;5075170;28;19910;-78
2023/09/28 04:10:03;;;;;;;;;;;;;;;;;;5047557;28;19920;-78
2023/09/28 04:12:29;;;;;;;;;;;;;;;;;;5044298;28;19909;-77
2023/09/28 04:14:55;;;;;;;;;;;;;;;;;;5052762;28;19909;-77
2023/09/28 04:17:21;;;;;;;;;;;;;;;;;;5057202;28;20386;-78
2023/09/28 04:19:47;;;;;;;;;;;;;;;;;;5055625;28;19905;-78
2023/09/28 04:22:13;;;;;;;;;;;;;;;;;;5055376;28;19912;-77
2023/09/28 04:24:39;;;;;;;;;;;;;;;;;;5037750;28;19909;-79
2023/09/28 04:27:08;;;;;;;;;;;;;;;;;;5037604;28;19905;-77
2023/09/28 04:29:33;;;;;;;;;;;;;;;;;;5052510;28;19936;-79
2023/09/28 04:31:59;;;;;;;;;;;;;;;;;;5076677;28;19904;-78
2023/09/28 04:34:25;;;;;;;;;;;;;;;;;;5077553;28;19944;-79
2023/09/28 04:36:51;;;;;;;;;;;;;;;;;;5080407;28;19908;-78
2023/09/28 04:39:17;;;;;;;;;;;;;;;;;;5070959;28;19917;-77
2023/09/28 04:41:46;;;;;;;;;;;;;;;;;;5050736;23;19921;-80
2023/09/28 04:44:12;;;;;;;;;;;;;;;;;;5040613;28;20359;-80
2023/09/28 04:46:38;;;;;;;;;;;;;;;;;;5040205;28;19970;-80
2023/09/28 04:49:04;;;;;;;;;;;;;;;;;;5055228;28;20146;-80
2023/09/28 04:51:30;;;;;;;;;;;;;;;;;;5055663;28;19905;-79
2023/09/28 04:53:56;;;;;;;;;;;;;;;;;;5040697;28;19947;-79
2023/09/28 04:56:22;;;;;;;;;;;;;;;;;;5055903;28;19909;-80
2023/09/28 04:58:48;;;;;;;;;;;;;;;;;;5039044;28;19905;-80
2023/09/28 05:01:14;;;;;;;;;;;;;;;;;;5040735;28;20375;-80
2023/09/28 05:03:40;;;;;;;;;;;;;;;;;;5055056;28;19920;-81
2023/09/28 05:06:06;;;;;;;;;;;;;;;;;;5055105;28;19905;-79
2023/09/28 05:08:32;;;;;;;;;;;;;;;;;;5055828;28;19999;-79
2023/09/28 05:10:58;;;;;;;;;;;;;;;;;;5055791;28;19951;-80
2023/09/28 05:13:25;;;;;;;;;;;;;;;;;;5036096;28;19920;-78
2023/09/28 05:15:51;;;;;;;;;;;;;;;;;;5029626;28;19910;-81
2023/09/28 05:18:17;;;;;;;;;;;;;;;;;;5021595;28;19944;-82
2023/09/28 05:20:43;;;;;;;;;;;;;;;;;;5022976;28;19905;-81
2023/09/28 05:23:09;;;;;;;;;;;;;;;;;;5023752;28;20000;-80
2023/09/28 05:25:35;;;;;;;;;;;;;;;;;;5022068;28;19955;-80
2023/09/28 05:28:01;;;;;;;;;;;;;;;;;;5032459;28;19913;-80
2023/09/28 05:30:26;;;;;;;;;;;;;;;;;;5049208;28;20359;-79
2023/09/28 05:32:52;;;;;;;;;;;;;;;;;;5065397;28;19912;-80
2023/09/28 05:35:18;;;;;;;;;;;;;;;;;;5075786;28;20011;-79
2023/09/28 05:37:45;;;;;;;;;;;;;;;;;;5044642;28;19921;-79
2023/09/28 05:40:11;;;;;;;;;;;;;;;;;;5043965;28;19911;-81
2023/09/28 05:42:37;;;;;;;;;;;;;;;;;;5055136;28;20343;-77
2023/09/28 05:45:03;;;;;;;;;;;;;;;;;;5037322;28;20071;-77
2023/09/28 05:47:29;;;;;;;;;;;;;;;;;;5037324;28;19909;-77
2023/09/28 05:49:55;;;;;;;;;;;;;;;;;;5037204;28;19920;-78
2023/09/28 05:52:22;;;;;;;;;;;;;;;;;;5036958;28;19932;-77
2023/09/28 05:54:49;;;;;;;;;;;;;;;;;;5037976;28;20360;-78
2023/09/28 05:57:15;;;;;;;;;;;;;;;;;;5035162;28;19987;-77
2023/09/28 05:59:41;;;;;;;;;;;;;;;;;;5036247;28;19956;-77
2023/09/28 06:02:07;;;;;;;;;;;;;;;;;;5036081;28;19905;-76
2023/09/28 06:04:33;;;;;;;;;;;;;;;;;;5019301;28;20000;-77
2023/09/28 06:06:59;;;;;;;;;;;;;;;;;;5016963;28;19905;-78
2023/09/28 06:09:25;;;;;;;;;;;;;;;;;;5016545;28;19916;-78
2023/09/28 06:11:52;;;;;;;;;;;;;;;;;;5020168;28;19905;-76
2023/09/28 06:14:19;;;;;;;;;;;;;;;;;;5021611;28;19992;-78
2023/09/28 06:16:45;;;;;;;;;;;;;;;;;;5022533;28;19909;-77
2023/09/28 06:19:14;;;;;;;;;;;;;;;;;;5023146;28;20012;-76
2023/09/28 06:21:40;;;;;;;;;;;;;;;;;;5037976;28;20272;-78
2023/09/28 06:24:06;;;;;;;;;;;;;;;;;;5035721;28;21240;-81
2023/09/28 06:26:33;;;;;;;;;;;;;;;;;;5041006;28;19905;-79
2023/09/28 06:28:59;;;;;;;;;;;;;;;;;;5039108;28;19909;-80
2023/09/28 06:31:25;;;;;;;;;;;;;;;;;;5041836;28;19913;-78
2023/09/28 06:33:51;;;;;;;;;;;;;;;;;;5057087;28;19912;-82
2023/09/28 06:36:18;;;;;;;;;;;;;;;;;;5035319;28;19916;-82
2023/09/28 06:38:44;;;;;;;;;;;;;;;;;;5022282;28;19906;-81
2023/09/28 06:41:10;;;;;;;;;;;;;;;;;;5025580;28;19913;-81
2023/09/28 06:43:36;;;;;;;;;;;;;;;;;;5025348;28;19955;-83
2023/09/28 06:46:02;;;;;;;;;;;;;;;;;;5025184;28;19909;-80
2023/09/28 06:48:28;;;;;;;;;;;;;;;;;;5022729;28;19916;-80
2023/09/28 06:50:54;;;;;;;;;;;;;;;;;;5022984;28;19906;-83
2023/09/28 06:53:20;;;;;;;;;;;;;;;;;;5036104;28;19932;-80
2023/09/28 06:55:46;;;;;;;;;;;;;;;;;;5038465;28;19909;-81
2023/09/28 06:58:14;;;;;;;;;;;;;;;;;;5041882;28;19905;-82
2023/09/28 07:00:40;;;;;;;;;;;;;;;;;;5041904;28;20340;-80
2023/09/28 07:03:06;;;;;;;;;;;;;;;;;;5043104;28;19912;-81
2023/09/28 07:05:33;;;;;;;;;;;;;;;;;;5045052;28;19909;-79
2023/09/28 07:08:00;;;;;;;;;;;;;;;;;;5041636;28;19933;-80
2023/09/28 07:10:26;;;;;;;;;;;;;;;;;;5041342;28;19913;-80
2023/09/28 07:12:52;;;;;;;;;;;;;;;;;;5043220;28;19911;-82
2023/09/28 07:15:18;;;;;;;;;;;;;;;;;;5040742;28;19905;-79
2023/09/28 07:17:44;;;;;;;;;;;;;;;;;;5040561;28;19905;-81
2023/09/28 07:20:10;;;;;;;;;;;;;;;;;;5042111;28;19905;-80
2023/09/28 07:22:37;;;;;;;;;;;;;;;;;;5041325;28;20324;-80
2023/09/28 07:25:03;;;;;;;;;;;;;;;;;;5040437;28;19905;-80
2023/09/28 07:27:32;;;;;;;;;;;;;;;;;;5042450;28;19927;-80
2023/09/28 07:29:59;;;;;;;;;;;;;;;;;;5042468;28;20023;-81
2023/09/28 07:32:25;;;;;;;;;;;;;;;;;;5041571;28;19913;-79
2023/09/28 07:34:52;;;;;;;;;;;;;;;;;;5043775;28;19972;-79
2023/09/28 07:37:18;;;;;;;;;;;;;;;;;;5044325;28;19905;-81
2023/09/28 07:39:44;;;;;;;;;;;;;;;;;;5044736;28;20020;-80
2023/09/28 07:42:10;;;;;;;;;;;;;;;;;;5043721;28;19928;-81
2023/09/28 07:44:36;;;;;;;;;;;;;;;;;;5028146;28;19931;-81
2023/09/28 07:47:03;;;;;;;;;;;;;;;;;;5023226;28;19905;-81
2023/09/28 07:49:29;;;;;;;;;;;;;;;;;;5023676;28;19940;-82
2023/09/28 07:51:55;;;;;;;;;;;;;;;;;;5022443;28;20406;-81
2023/09/28 07:54:21;;;;;;;;;;;;;;;;;;5047810;28;20364;-80
2023/09/28 07:56:47;;;;;;;;;;;;;;;;;;5042838;28;19988;-81
2023/09/28 07:59:13;;;;;;;;;;;;;;;;;;5040264;28;19909;-81
2023/09/28 08:01:41;;;;;;;;;;;;;;;;;;5042690;28;20033;-81
2023/09/28 08:04:07;;;;;;;;;;;;;;;;;;5042004;28;19972;-80
2023/09/28 08:06:33;;;;;;;;;;;;;;;;;;5039091;28;19951;-80
2023/09/28 08:08:59;;;;;;;;;;;;;;;;;;5039245;28;19916;-80
2023/09/28 08:11:25;;;;;;;;;;;;;;;;;;5039919;28;19960;-82
2023/09/28 08:13:51;;;;;;;;;;;;;;;;;;5041457;28;19912;-81
2023/09/28 08:16:17;;;;;;;;;;;;;;;;;;5036858;28;19917;-82
2023/09/28 08:18:43;;;;;;;;;;;;;;;;;;5036496;28;19940;-80
2023/09/28 08:21:09;;;;;;;;;;;;;;;;;;5046433;28;19916;-80
2023/09/28 08:23:37;;;;;;;;;;;;;;;;;;5031070;28;19912;-80
2023/09/28 08:26:03;;;;;;;;;;;;;;;;;;5028758;28;19941;-79
2023/09/28 08:28:29;;;;;;;;;;;;;;;;;;5022698;28;19905;-80
2023/09/28 08:30:56;;;;;;;;;;;;;;;;;;5022499;28;20008;-81
2023/09/28 08:33:22;;;;;;;;;;;;;;;;;;5034325;28;20275;-81
2023/09/28 08:35:48;;;;;;;;;;;;;;;;;;5042055;28;19905;-80
2023/09/28 08:38:15;;;;;;;;;;;;;;;;;;5040574;28;19909;-82
2023/09/28 08:40:41;;;;;;;;;;;;;;;;;;5041796;28;19913;-81
2023/09/28 08:43:07;;;;;;;;;;;;;;;;;;5042296;28;20000;-82
2023/09/28 08:45:33;;;;;;;;;;;;;;;;;;5049126;28;19905;-83
2023/09/28 08:47:59;;;;;;;;;;;;;;;;;;5045597;28;19911;-83
2023/09/28 08:50:25;;;;;;;;;;;;;;;;;;5042890;28;19944;-84
2023/09/28 08:52:53;;;;;;;;;;;;;;;;;;5041041;28;19913;-83
2023/09/28 08:55:21;;;;;;;;;;;;;;;;;;5056328;28;20001;-81
2023/09/28 08:57:48;;;;;;;;;;;;;;;;;;5049164;28;20003;-82
2023/09/28 09:00:14;;;;;;;;;;;;;;;;;;5053301;28;19935;-79
2023/09/28 09:02:40;;;;;;;;;;;;;;;;;;5056500;28;19897;-78
2023/09/28 09:05:06;;;;;;;;;;;;;;;;;;5057040;28;19897;-80
2023/09/28 09:07:32;;;;;;;;;;;;;;;;;;5037289;28;20227;-80
2023/09/28 09:09:59;;;;;;;;;;;;;;;;;;5034394;28;19909;-82
2023/09/28 09:12:25;;;;;;;;;;;;;;;;;;5035490;28;19981;-83
2023/09/28 09:14:51;;;;;;;;;;;;;;;;;;5035484;28;19933;-83
2023/09/28 09:17:17;;;;;;;;;;;;;;;;;;5026563;28;19937;-83
2023/09/28 09:19:43;;;;;;;;;;;;;;;;;;5025120;28;19906;-83
2023/09/28 09:22:09;;;;;;;;;;;;;;;;;;5025797;28;19917;-83
2023/09/28 09:24:35;;;;;;;;;;;;;;;;;;5052447;28;20140;-82
2023/09/28 09:27:01;;;;;;;;;;;;;;;;;;5045326;28;19904;-84
2023/09/28 09:29:27;;;;;;;;;;;;;;;;;;5045357;28;19913;-83
2023/09/28 09:31:53;;;;;;;;;;;;;;;;;;5063239;28;19963;-83
2023/09/28 09:34:19;;;;;;;;;;;;;;;;;;5047177;28;19932;-82
2023/09/28 09:36:45;;;;;;;;;;;;;;;;;;5064658;28;19965;-82
2023/09/28 09:39:11;;;;;;;;;;;;;;;;;;5060185;28;19918;-80
2023/09/28 09:41:37;;;;;;;;;;;;;;;;;;5043266;28;19916;-81
2023/09/28 09:44:04;;;;;;;;;;;;;;;;;;5048348;28;19976;-83
2023/09/28 09:46:30;;;;;;;;;;;;;;;;;;5048075;28;20390;-82
2023/09/28 09:48:56;;;;;;;;;;;;;;;;;;5050730;28;19961;-80
2023/09/28 09:51:23;;;;;;;;;;;;;;;;;;5045300;28;19953;-82
2023/09/28 09:53:49;;;;;;;;;;;;;;;;;;5042734;28;19976;-83
2023/09/28 09:56:16;;;;;;;;;;;;;;;;;;5035179;28;19905;-83
2023/09/28 09:58:42;;;;;;;;;;;;;;;;;;5042817;28;19955;-81
2023/09/28 10:01:08;;;;;;;;;;;;;;;;;;5049789;28;20389;-79
2023/09/28 10:03:35;;;;;;;;;;;;;;;;;;5045641;28;20299;-83
2023/09/28 10:06:00;;;;;;;;;;;;;;;;;;5045024;28;19905;-82
2023/09/28 10:08:26;;;;;;;;;;;;;;;;;;5041619;28;19905;-83
2023/09/28 10:10:52;;;;;;;;;;;;;;;;;;5041470;28;19912;-82
2023/09/28 10:13:18;;;;;;;;;;;;;;;;;;5032840;28;19947;-82
2023/09/28 10:15:45;;;;;;;;;;;;;;;;;;5028415;28;19935;-81
2023/09/28 10:18:12;;;;;;;;;;;;;;;;;;5030619;28;19969;-83
2023/09/28 10:20:38;;;;;;;;;;;;;;;;;;5027764;28;19909;-81
2023/09/28 10:23:04;;;;;;;;;;;;;;;;;;5037205;28;19916;-82
2023/09/28 10:25:30;;;;;;;;;;;;;;;;;;5056600;28;19928;-82
2023/09/28 10:27:56;;;;;;;;;;;;;;;;;;5046665;28;19905;-82
2023/09/28 10:30:22;;;;;;;;;;;;;;;;;;5044044;28;20016;-82
2023/09/28 10:32:48;;;;;;;;;;;;;;;;;;5045557;28;19905;-84
2023/09/28 10:35:14;;;;;;;;;;;;;;;;;;5046930;28;20134;-83
2023/09/28 10:37:40;;;;;;;;;;;;;;;;;;5048237;28;19909;-83
2023/09/28 10:40:06;;;;;;;;;;;;;;;;;;5049120;28;19901;-81
2023/09/28 10:42:34;;;;;;;;;;;;;;;;;;5045851;28;19920;-83
2023/09/28 10:45:01;;;;;;;;;;;;;;;;;;5044871;28;19901;-82
2023/09/28 10:47:31;;;;;;;;;;;;;;;;;;5044438;28;19915;-82
2023/09/28 10:49:56;;;;;;;;;;;;;;;;;;5046387;28;19908;-82
2023/09/28 10:52:22;;;;;;;;;;;;;;;;;;5056974;28;19940;-80
2023/09/28 10:54:48;;;;;;;;;;;;;;;;;;5059261;28;19905;-81
2023/09/28 10:57:14;;;;;;;;;;;;;;;;;;5058095;28;19909;-77
2023/09/28 10:59:41;;;;;;;;;;;;;;;;;;5056917;28;19956;-79
2023/09/28 11:02:07;;;;;;;;;;;;;;;;;;5048693;28;19992;-81
2023/09/28 11:04:33;;;;;;;;;;;;;;;;;;5044066;28;19909;-81
2023/09/28 11:07:00;;;;;;;;;;;;;;;;;;5027636;28;19932;-82
2023/09/28 11:09:27;;;;;;;;;;;;;;;;;;5026740;28;19909;-84
2023/09/28 11:11:53;;;;;;;;;;;;;;;;;;5027964;28;19909;-83
2023/09/28 11:14:20;;;;;;;;;;;;;;;;;;5028596;28;19917;-82
2023/09/28 11:16:49;;;;;;;;;;;;;;;;;;5034915;28;19916;-81
2023/09/28 11:19:15;;;;;;;;;;;;;;;;;;5034048;28;20691;-81
2023/09/28 11:21:41;;;;;;;;;;;;;;;;;;5048480;28;20322;-81
2023/09/28 11:24:07;;;;;;;;;;;;;;;;;;5043958;28;20003;-83
2023/09/28 11:26:33;;;;;;;;;;;;;;;;;;5031100;28;19917;-83
2023/09/28 11:28:59;;;;;;;;;;;;;;;;;;5027875;28;19917;-83
2023/09/28 11:31:27;;;;;;;;;;;;;;;;;;5027563;28;19906;-82
2023/09/28 11:33:53;;;;;;;;;;;;;;;;;;5028900;28;19929;-84
2023/09/28 11:36:22;;;;;;;;;;;;;;;;;;5028330;28;19909;-82
2023/09/28 11:38:48;;;;;;;;;;;;;;;;;;5025775;28;19905;-83
2023/09/28 11:41:14;;;;;;;;;;;;;;;;;;5033350;28;19983;-79
2023/09/28 11:43:40;;;;;;;;;;;;;;;;;;5029582;28;19940;-81
2023/09/28 11:46:06;;;;;;;;;;;;;;;;;;5022565;28;19905;-82
2023/09/28 11:48:32;;;;;;;;;;;;;;;;;;5021696;28;19992;-81
2023/09/28 11:50:58;;;;;;;;;;;;;;;;;;5021955;28;19920;-83
2023/09/28 11:53:24;;;;;;;;;;;;;;;;;;5036086;28;19908;-82
2023/09/28 11:55:51;;;;;;;;;;;;;;;;;;5040164;28;19913;-83
2023/09/28 11:58:17;;;;;;;;;;;;;;;;;;5029557;28;19905;-84
2023/09/28 12:00:43;;;;;;;;;;;;;;;;;;5032613;28;19905;-83
2023/09/28 12:03:09;;;;;;;;;;;;;;;;;;5032302;28;19948;-82
2023/09/28 12:05:35;;;;;;;;;;;;;;;;;;5031393;28;19956;-83
2023/09/28 12:08:01;;;;;;;;;;;;;;;;;;5030824;28;19905;-83
2023/09/28 12:10:27;;;;;;;;;;;;;;;;;;5032546;28;20322;-81
2023/09/28 12:12:55;;;;;;;;;;;;;;;;;;5044995;28;19913;-83
2023/09/28 12:15:21;;;;;;;;;;;;;;;;;;5030177;28;19933;-82
2023/09/28 12:17:47;;;;;;;;;;;;;;;;;;5031506;28;19905;-83
2023/09/28 12:20:13;;;;;;;;;;;;;;;;;;5028676;28;19905;-82
2023/09/28 12:22:40;;;;;;;;;;;;;;;;;;5029674;28;19905;-84
2023/09/28 12:25:06;;;;;;;;;;;;;;;;;;5052618;28;19912;-83
2023/09/28 12:27:32;;;;;;;;;;;;;;;;;;5033111;28;19943;-83
2023/09/28 12:29:59;;;;;;;;;;;;;;;;;;5029051;28;19921;-80
2023/09/28 12:32:26;;;;;;;;;;;;;;;;;;5049110;28;19931;-82
2023/09/28 12:34:52;;;;;;;;;;;;;;;;;;5048327;28;19905;-82
2023/09/28 12:37:18;;;;;;;;;;;;;;;;;;5048063;28;19914;-83
2023/09/28 12:39:44;;;;;;;;;;;;;;;;;;5050871;28;20274;-82
2023/09/28 12:42:13;;;;;;;;;;;;;;;;;;5052141;28;19912;-83
2023/09/28 12:44:39;;;;;;;;;;;;;;;;;;5035854;28;19894;-79
2023/09/28 12:47:06;;;;;;;;;;;;;;;;;;5034687;28;19909;-79
2023/09/28 12:49:32;;;;;;;;;;;;;;;;;;5036861;28;19905;-80
2023/09/28 12:51:58;;;;;;;;;;;;;;;;;;5037720;28;19908;-79
2023/09/28 12:54:24;;;;;;;;;;;;;;;;;;5051081;28;19909;-80
2023/09/28 12:56:51;;;;;;;;;;;;;;;;;;5056633;28;19932;-80
2023/09/28 12:59:18;;;;;;;;;;;;;;;;;;5055208;28;19897;-79
2023/09/28 13:01:47;;;;;;;;;;;;;;;;;;5056856;28;19941;-79
2023/09/28 13:04:13;;;;;;;;;;;;;;;;;;5054051;28;19905;-84
2023/09/28 13:06:39;;;;;;;;;;;;;;;;;;5048831;28;19963;-83
2023/09/28 13:09:06;;;;;;;;;;;;;;;;;;5051763;28;19908;-83
2023/09/28 13:11:32;;;;;;;;;;;;;;;;;;5049006;28;19951;-85
2023/09/28 13:13:59;;;;;;;;;;;;;;;;;;5047222;28;19932;-83
2023/09/28 13:16:25;;;;;;;;;;;;;;;;;;5044535;28;19909;-80
2023/09/28 13:18:51;;;;;;;;;;;;;;;;;;5029429;28;19906;-83
2023/09/28 13:21:19;;;;;;;;;;;;;;;;;;5024887;28;19906;-81
2023/09/28 13:23:45;;;;;;;;;;;;;;;;;;5041394;28;19909;-84
2023/09/28 13:26:13;;;;;;;;;;;;;;;;;;5062721;28;19996;-82
2023/09/28 13:28:39;;;;;;;;;;;;;;;;;;5048054;28;19916;-81
2023/09/28 13:31:07;;;;;;;;;;;;;;;;;;5052981;28;19991;-81
2023/09/28 13:33:36;;;;;;;;;;;;;;;;;;5052124;28;19919;-81
2023/09/28 13:36:04;;;;;;;;;;;;;;;;;;5053159;28;19905;-82
2023/09/28 13:38:30;;;;;;;;;;;;;;;;;;5053897;28;19912;-82
2023/09/28 13:40:58;;;;;;;;;;;;;;;;;;5052278;28;19913;-82
2023/09/28 13:43:24;;;;;;;;;;;;;;;;;;5053843;28;19909;-82
2023/09/28 13:45:50;;;;;;;;;;;;;;;;;;5052953;28;19920;-81
2023/09/28 13:48:16;;;;;;;;;;;;;;;;;;5054734;28;19893;-82
2023/09/28 13:50:44;;;;;;;;;;;;;;;;;;5045452;28;19901;-81
2023/09/28 13:53:10;;;;;;;;;;;;;;;;;;5041289;28;19905;-80
2023/09/28 13:55:36;;;;;;;;;;;;;;;;;;5062279;28;19971;-81
2023/09/28 13:58:02;;;;;;;;;;;;;;;;;;5093570;28;19903;-83
2023/09/28 14:00:31;;;;;;;;;;;;;;;;;;5092598;28;19924;-81
2023/09/28 14:02:57;;;;;;;;;;;;;;;;;;5077544;28;19905;-81
2023/09/28 14:05:24;;;;;;;;;;;;;;;;;;5077730;28;19889;-82
2023/09/28 14:07:50;;;;;;;;;;;;;;;;;;5076476;28;19909;-82
2023/09/28 14:10:17;;;;;;;;;;;;;;;;;;5055848;28;19924;-81
2023/09/28 14:12:45;;;;;;;;;;;;;;;;;;5056660;28;20386;-82
2023/09/28 14:15:11;;;;;;;;;;;;;;;;;;5056565;28;19909;-81
2023/09/28 14:17:37;;;;;;;;;;;;;;;;;;5056682;28;19905;-82
2023/09/28 14:20:04;;;;;;;;;;;;;;;;;;5058613;28;19912;-81
2023/09/28 14:22:30;;;;;;;;;;;;;;;;;;5055673;28;19905;-83
2023/09/28 14:24:56;;;;;;;;;;;;;;;;;;5054643;28;20015;-81
2023/09/28 14:27:22;;;;;;;;;;;;;;;;;;5055240;28;19912;-82
2023/09/28 14:29:48;;;;;;;;;;;;;;;;;;5056205;28;20283;-81
2023/09/28 14:32:15;;;;;;;;;;;;;;;;;;5054875;28;19909;-82
2023/09/28 14:34:41;;;;;;;;;;;;;;;;;;5053238;28;19905;-83
2023/09/28 14:37:07;;;;;;;;;;;;;;;;;;5052623;28;19893;-82
2023/09/28 14:39:33;;;;;;;;;;;;;;;;;;5052400;28;19901;-82
2023/09/28 14:41:59;;;;;;;;;;;;;;;;;;5043483;28;19914;-83
2023/09/28 14:44:25;;;;;;;;;;;;;;;;;;5034181;28;19906;-82
2023/09/28 14:46:51;;;;;;;;;;;;;;;;;;5041009;28;19909;-81
2023/09/28 14:49:17;;;;;;;;;;;;;;;;;;5053306;28;19945;-81
2023/09/28 14:51:43;;;;;;;;;;;;;;;;;;5054438;28;19954;-83
2023/09/28 14:54:10;;;;;;;;;;;;;;;;;;5052796;28;19893;-81
2023/09/28 14:56:36;;;;;;;;;;;;;;;;;;5055493;28;19916;-82
2023/09/28 14:59:02;;;;;;;;;;;;;;;;;;5054392;28;19904;-81
2023/09/28 15:01:29;;;;;;;;;;;;;;;;;;5055283;28;19893;-83
2023/09/28 15:03:55;;;;;;;;;;;;;;;;;;5055291;28;19935;-80
2023/09/28 15:06:21;;;;;;;;;;;;;;;;;;5057527;28;19935;-79
2023/09/28 15:08:47;;;;;;;;;;;;;;;;;;5058078;28;19929;-80
2023/09/28 15:11:14;;;;;;;;;;;;;;;;;;5058758;28;19897;-81
2023/09/28 15:13:40;;;;;;;;;;;;;;;;;;5045133;28;19935;-80
2023/09/28 15:16:06;;;;;;;;;;;;;;;;;;5040303;28;19913;-81
2023/09/28 15:18:31;;;;;;;;;;;;;;;;;;5037769;28;19897;-78
2023/09/28 15:20:57;;;;;;;;;;;;;;;;;;5037380;28;19917;-77
2023/09/28 15:23:23;;;;;;;;;;;;;;;;;;5037890;28;19905;-81
2023/09/28 15:25:49;;;;;;;;;;;;;;;;;;5053947;28;19925;-80
2023/09/28 15:28:15;;;;;;;;;;;;;;;;;;5054385;28;19893;-80
2023/09/28 15:30:43;;;;;;;;;;;;;;;;;;5037242;28;19917;-80
2023/09/28 15:33:09;;;;;;;;;;;;;;;;;;5032316;28;19909;-79
2023/09/28 15:35:35;;;;;;;;;;;;;;;;;;5033099;28;19916;-80
2023/09/28 15:38:01;;;;;;;;;;;;;;;;;;5033308;28;19984;-82
2023/09/28 15:40:27;;;;;;;;;;;;;;;;;;5032260;28;20004;-81
2023/09/28 15:42:53;;;;;;;;;;;;;;;;;;5033225;28;19910;-82
2023/09/28 15:45:19;;;;;;;;;;;;;;;;;;5033142;28;19920;-81
2023/09/28 15:47:45;;;;;;;;;;;;;;;;;;5033745;28;19944;-81
2023/09/28 15:50:11;;;;;;;;;;;;;;;;;;5032470;28;19948;-79
2023/09/28 15:52:37;;;;;;;;;;;;;;;;;;5034455;28;19916;-80
2023/09/28 15:55:04;;;;;;;;;;;;;;;;;;5053683;28;19909;-78
2023/09/28 15:57:30;;;;;;;;;;;;;;;;;;5074204;28;19909;-77
2023/09/28 15:59:56;;;;;;;;;;;;;;;;;;5052871;28;19900;-79
2023/09/28 16:02:23;;;;;;;;;;;;;;;;;;5048245;28;19956;-80
2023/09/28 16:04:49;;;;;;;;;;;;;;;;;;5053699;28;19900;-80
2023/09/28 16:07:15;;;;;;;;;;;;;;;;;;5053729;28;19909;-79
2023/09/28 16:09:41;;;;;;;;;;;;;;;;;;5053484;28;19934;-78
2023/09/28 16:12:07;;;;;;;;;;;;;;;;;;5052202;28;19936;-80
2023/09/28 16:14:32;;;;;;;;;;;;;;;;;;5032970;28;19905;-78
2023/09/28 16:16:59;;;;;;;;;;;;;;;;;;5033635;28;19929;-79
2023/09/28 16:19:25;;;;;;;;;;;;;;;;;;5052459;28;19935;-80
2023/09/28 16:21:52;;;;;;;;;;;;;;;;;;5053810;28;19905;-78
2023/09/28 16:24:18;;;;;;;;;;;;;;;;;;5064684;28;19959;-81
2023/09/28 16:26:44;;;;;;;;;;;;;;;;;;5048099;28;19909;-82
2023/09/28 16:29:10;;;;;;;;;;;;;;;;;;5048155;28;19980;-82
2023/09/28 16:31:36;;;;;;;;;;;;;;;;;;5034421;28;19960;-84
2023/09/28 16:34:02;;;;;;;;;;;;;;;;;;5035069;28;19965;-81
2023/09/28 16:36:28;;;;;;;;;;;;;;;;;;5035404;28;19898;-81
2023/09/28 16:38:54;;;;;;;;;;;;;;;;;;5034159;28;19937;-78